createdAt,value
2023-03-29T00:00:46.955Z,22.77
2023-03-29T00:03:37.419Z,20.10
2023-03-29T00:06:33.267Z,18.40
2023-03-29T00:09:21.164Z,16.73
2023-03-29T00:12:08.098Z,13.93
2023-03-29T00:14:56.747Z,15.43
2023-03-29T00:17:43.461Z,14.73
2023-03-29T00:20:30.179Z,14.15
2023-03-29T00:23:18.587Z,17.60
2023-03-29T00:26:08.613Z,14.80
2023-03-29T00:28:55.633Z,15.82
2023-03-29T00:31:42.754Z,14.95
2023-03-29T00:34:31.817Z,14.88
2023-03-29T00:37:22.883Z,15.68
2023-03-29T00:40:15.796Z,15.25
2023-03-29T00:43:06.419Z,13.63
2023-03-29T00:45:53.411Z,14.40
2023-03-29T00:48:40.500Z,15.88
2023-03-29T00:51:28.658Z,13.48
2023-03-29T00:54:21.204Z,14.80
2023-03-29T00:57:10.847Z,13.88
2023-03-29T00:59:58.605Z,17.13
2023-03-29T01:02:51.198Z,17.70
2023-03-29T01:05:42.227Z,17.05
2023-03-29T01:08:37.620Z,16.10
2023-03-29T01:11:28.509Z,17.20
2023-03-29T01:14:22.985Z,17.17
2023-03-29T01:17:13.114Z,18.08
2023-03-29T01:20:09.787Z,17.92
2023-03-29T01:23:33.863Z,17.58
2023-03-29T01:26:30.519Z,15.57
2023-03-29T01:29:43.407Z,15.93
2023-03-29T01:32:37.864Z,15.77
2023-03-29T01:35:32.834Z,14.07
2023-03-29T01:38:23.583Z,13.57
2023-03-29T01:41:12.261Z,12.98
2023-03-29T01:44:06.757Z,14.38
2023-03-29T01:46:57.071Z,13.55
2023-03-29T01:49:52.365Z,14.85
2023-03-29T01:52:52.358Z,15.88
2023-03-29T01:55:41.263Z,15.57
2023-03-29T01:58:33.971Z,16.33
2023-03-29T02:01:26.227Z,15.07
2023-03-29T02:04:18.018Z,16.63
2023-03-29T02:07:07.535Z,16.98
2023-03-29T02:09:54.323Z,16.23
2023-03-29T02:12:41.371Z,17.10
2023-03-29T02:15:28.306Z,16.58
2023-03-29T02:18:17.942Z,18.25
2023-03-29T02:21:07.507Z,21.65
2023-03-29T02:23:56.288Z,21.92
2023-03-29T02:26:42.870Z,23.67
2023-03-29T02:29:29.743Z,23.92
2023-03-29T02:32:49.171Z,24.60
2023-03-29T02:35:46.242Z,25.10
2023-03-29T02:38:33.341Z,23.63
2023-03-29T02:41:21.229Z,26.52
2023-03-29T02:44:19.293Z,22.48
2023-03-29T02:47:16.384Z,20.65
2023-03-29T02:50:02.893Z,19.17
2023-03-29T02:52:56.447Z,20.30
2023-03-29T02:55:43.192Z,18.13
2023-03-29T02:58:29.801Z,17.38
2023-03-29T03:01:16.989Z,17.17
2023-03-29T03:04:06.372Z,17.35
2023-03-29T03:06:55.343Z,14.98
2023-03-29T03:09:42.847Z,16.85
2023-03-29T03:12:29.429Z,17.20
2023-03-29T03:15:16.428Z,18.33
2023-03-29T03:18:04.450Z,15.77
2023-03-29T03:20:57.250Z,20.63
2023-03-29T03:23:46.167Z,20.38
2023-03-29T03:26:34.324Z,19.70
2023-03-29T03:29:25.327Z,21.27
2023-03-29T03:32:30.680Z,24.50
2023-03-29T03:36:02.975Z,22.67
2023-03-29T03:38:50.840Z,19.77
2023-03-29T03:41:40.537Z,16.10
2023-03-29T03:44:30.497Z,18.90
2023-03-29T03:47:41.215Z,28.27
2023-03-29T03:50:59.309Z,23.85
2023-03-29T03:53:51.893Z,26.67
2023-03-29T03:56:53.789Z,26.20
2023-03-29T03:59:49.163Z,23.25
2023-03-29T04:02:43.772Z,22.13
2023-03-29T04:05:30.214Z,22.92
2023-03-29T04:08:17.469Z,23.65
2023-03-29T04:11:28.170Z,20.33
2023-03-29T04:14:15.478Z,19.17
2023-03-29T04:17:22.809Z,18.95
2023-03-29T04:20:15.113Z,18.88
2023-03-29T04:23:01.895Z,26.77
2023-03-29T04:25:53.972Z,24.02
2023-03-29T04:29:16.293Z,25.20
2023-03-29T04:32:14.299Z,25.95
2023-03-29T04:35:21.274Z,26.30
2023-03-29T04:38:13.854Z,28.52
2023-03-29T04:41:05.171Z,24.30
2023-03-29T04:44:18.214Z,23.27
2023-03-29T04:47:13.293Z,20.55
2023-03-29T04:50:03.422Z,20.60
2023-03-29T04:53:00.456Z,25.17
2023-03-29T04:55:52.412Z,27.90
2023-03-29T04:58:52.330Z,20.90
2023-03-29T05:01:40.897Z,19.42
2023-03-29T05:04:29.384Z,21.80
2023-03-29T05:07:24.861Z,24.02
2023-03-29T05:10:18.018Z,24.70
2023-03-29T05:13:08.372Z,22.77
2023-03-29T05:15:55.111Z,21.02
2023-03-29T05:18:42.094Z,19.20
2023-03-29T05:21:29.721Z,18.17
2023-03-29T05:24:22.612Z,16.73
2023-03-29T05:27:17.392Z,18.38
2023-03-29T05:30:16.569Z,23.02
2023-03-29T05:33:16.141Z,21.45
2023-03-29T05:36:11.288Z,20.75
2023-03-29T05:39:06.209Z,20.98
2023-03-29T05:41:55.033Z,19.80
2023-03-29T05:44:54.614Z,21.00
2023-03-29T05:47:41.873Z,18.45
2023-03-29T05:50:28.521Z,24.30
2023-03-29T05:53:17.769Z,17.92
2023-03-29T05:56:04.390Z,17.40
2023-03-29T05:58:57.137Z,16.67
2023-03-29T06:01:47.148Z,16.37
2023-03-29T06:04:40.242Z,18.42
2023-03-29T06:07:44.532Z,19.20
2023-03-29T06:10:36.795Z,18.20
2023-03-29T06:13:42.321Z,19.27
2023-03-29T06:16:29.727Z,18.90
2023-03-29T06:19:17.474Z,20.55
2023-03-29T06:22:05.616Z,26.02
2023-03-29T06:24:54.835Z,25.92
2023-03-29T06:27:52.181Z,22.60
2023-03-29T06:30:39.798Z,23.55
2023-03-29T06:33:27.827Z,19.67
2023-03-29T06:36:34.585Z,19.70
2023-03-29T06:39:21.541Z,19.10
2023-03-29T06:42:22.686Z,18.33
2023-03-29T06:45:38.858Z,14.80
2023-03-29T06:48:31.842Z,12.30
2023-03-29T06:51:21.117Z,11.75
2023-03-29T06:54:09.395Z,11.52
2023-03-29T06:57:05.575Z,11.52
2023-03-29T06:59:54.062Z,11.05
2023-03-29T07:02:54.300Z,11.18
2023-03-29T07:05:41.921Z,9.52
2023-03-29T07:08:35.290Z,9.63
2023-03-29T07:11:26.579Z,9.95
2023-03-29T07:14:31.051Z,10.32
2023-03-29T07:17:18.775Z,10.32
2023-03-29T07:20:14.688Z,10.32
2023-03-29T07:23:09.739Z,10.48
2023-03-29T07:25:56.648Z,10.45
2023-03-29T07:28:43.404Z,9.90
2023-03-29T07:31:30.923Z,9.70
2023-03-29T07:34:37.144Z,9.18
2023-03-29T07:37:26.426Z,9.70
2023-03-29T07:40:19.114Z,7.82
2023-03-29T07:43:38.015Z,7.78
2023-03-29T07:46:30.010Z,8.32
2023-03-29T07:49:17.175Z,7.57
2023-03-29T07:52:04.026Z,7.25
2023-03-29T07:54:54.289Z,7.18
2023-03-29T07:57:52.323Z,7.78
2023-03-29T08:00:39.470Z,8.45
2023-03-29T08:03:48.919Z,8.23
2023-03-29T08:06:36.819Z,7.82
2023-03-29T08:09:29.746Z,7.03
2023-03-29T08:12:17.094Z,7.30
2023-03-29T08:15:13.518Z,9.20
2023-03-29T08:18:03.326Z,10.07
2023-03-29T08:20:53.125Z,7.97
2023-03-29T08:23:43.081Z,6.75
2023-03-29T08:26:45.202Z,8.52
2023-03-29T08:29:34.847Z,10.68
2023-03-29T08:32:22.599Z,24.80
2023-03-29T08:35:09.893Z,20.48
2023-03-29T08:38:09.510Z,11.23
2023-03-29T08:40:57.020Z,9.83
2023-03-29T08:43:45.507Z,10.05
2023-03-29T08:46:58.490Z,9.38
2023-03-29T08:49:56.701Z,7.60
2023-03-29T08:52:57.536Z,7.53
2023-03-29T08:56:25.187Z,7.50
2023-03-29T08:59:37.620Z,17.83
2023-03-29T09:02:36.465Z,14.45
2023-03-29T09:05:39.183Z,14.65
2023-03-29T09:08:32.548Z,8.10
2023-03-29T09:11:24.100Z,7.25
2023-03-29T09:14:29.687Z,6.30
2023-03-29T09:17:56.324Z,4.18
2023-03-29T09:20:52.812Z,4.88
2023-03-29T09:23:59.387Z,5.47
2023-03-29T09:26:55.368Z,3.53
2023-03-29T09:30:13.162Z,3.10
2023-03-29T09:33:44.490Z,3.20
2023-03-29T09:37:02.904Z,4.18
2023-03-29T09:39:49.896Z,4.35
2023-03-29T09:42:40.726Z,4.03
2023-03-29T09:45:27.220Z,3.72
2023-03-29T09:48:15.843Z,3.17
2023-03-29T09:51:08.977Z,3.15
2023-03-29T09:53:58.237Z,3.50
2023-03-29T09:57:03.589Z,5.05
2023-03-29T09:59:51.539Z,5.90
2023-03-29T10:02:38.403Z,7.60
2023-03-29T10:05:26.375Z,16.38
2023-03-29T10:08:44.829Z,6.25
2023-03-29T10:11:37.519Z,6.47
2023-03-29T10:14:38.625Z,9.15
2023-03-29T10:17:28.496Z,5.22
2023-03-29T10:20:36.540Z,5.50
2023-03-29T10:23:23.296Z,5.20
2023-03-29T10:26:21.692Z,4.97
2023-03-29T10:29:09.632Z,3.80
2023-03-29T10:31:56.746Z,4.20
2023-03-29T10:34:48.175Z,5.72
2023-03-29T10:37:35.414Z,4.30
2023-03-29T10:40:40.903Z,5.47
2023-03-29T10:43:34.939Z,6.50
2023-03-29T10:46:27.495Z,6.15
2023-03-29T10:49:20.574Z,5.00
2023-03-29T10:52:13.787Z,4.13
2023-03-29T10:55:03.469Z,8.70
2023-03-29T10:58:41.414Z,9.20
2023-03-29T11:01:47.391Z,5.68
2023-03-29T11:05:13.779Z,5.00
2023-03-29T11:08:17.671Z,8.70
2023-03-29T11:11:37.467Z,7.93
2023-03-29T11:15:05.655Z,7.20
2023-03-29T11:18:33.389Z,11.75
2023-03-29T11:21:37.815Z,7.65
2023-03-29T11:35:42.444Z,5.68
2023-03-29T11:38:37.889Z,5.68
2023-03-29T11:41:30.800Z,5.35
2023-03-29T11:44:23.485Z,4.60
2023-03-29T11:47:23.527Z,5.82
2023-03-29T11:50:20.683Z,4.45
2023-03-29T11:53:17.680Z,4.05
2023-03-29T11:56:13.305Z,4.18
2023-03-29T11:59:09.021Z,4.35
2023-03-29T12:02:20.551Z,12.02
2023-03-29T12:05:24.694Z,4.20
2023-03-29T12:08:21.353Z,4.07
2023-03-29T12:11:30.849Z,6.75
2023-03-29T12:14:27.366Z,3.55
2023-03-29T12:17:24.660Z,4.35
2023-03-29T12:20:20.138Z,4.30
2023-03-29T12:23:16.652Z,3.15
2023-03-29T12:26:12.917Z,3.63
2023-03-29T12:29:28.633Z,5.47
2023-03-29T12:32:38.921Z,3.92
2023-03-29T12:36:08.945Z,3.40
2023-03-29T12:39:19.062Z,3.60
2023-03-29T12:43:05.292Z,7.53
2023-03-29T12:46:21.518Z,11.73
2023-03-29T12:49:23.100Z,17.67
2023-03-29T12:52:32.945Z,12.38
2023-03-29T12:55:45.509Z,28.55
2023-03-29T12:58:39.986Z,14.07
2023-03-29T13:01:29.002Z,17.98
2023-03-29T13:04:21.941Z,12.00
2023-03-29T13:07:24.214Z,30.65
2023-03-29T13:10:33.249Z,19.23
2023-03-29T13:13:26.142Z,9.43
2023-03-29T13:45:26.746Z,9.63
2023-03-29T13:48:30.965Z,34.42
2023-03-29T13:51:19.364Z,19.55
2023-03-29T13:54:19.874Z,9.80
2023-03-29T13:57:41.267Z,10.15
2023-03-29T14:00:33.850Z,7.90
2023-03-29T14:03:33.298Z,9.07
2023-03-29T14:06:42.649Z,5.80
2023-03-29T14:09:35.041Z,9.35
2023-03-29T14:12:29.401Z,15.88
2023-03-29T14:15:45.231Z,8.63
2023-03-29T14:18:36.655Z,11.50
2023-03-29T14:21:23.147Z,13.75
2023-03-29T14:24:13.002Z,10.65
2023-03-29T14:27:02.769Z,11.95
2023-03-29T14:29:51.773Z,7.95
2023-03-29T14:32:39.855Z,8.85
2023-03-29T14:35:32.490Z,14.07
2023-03-29T14:38:18.683Z,11.60
2023-03-29T14:41:05.568Z,14.93
2023-03-29T14:43:52.359Z,56.08
2023-03-29T14:46:39.595Z,15.13
2023-03-29T14:49:27.289Z,30.15
2023-03-29T14:52:15.655Z,9.55
2023-03-29T14:55:02.740Z,13.13
2023-03-29T14:57:51.380Z,13.45
2023-03-29T15:00:43.095Z,12.95
2023-03-29T15:03:33.444Z,12.00
2023-03-29T15:06:20.934Z,15.07
2023-03-29T15:09:15.403Z,18.20
2023-03-29T15:12:06.217Z,13.98
2023-03-29T15:14:54.833Z,16.90
2023-03-29T15:17:51.923Z,17.15
2023-03-29T15:20:40.600Z,9.82
2023-03-29T15:23:27.163Z,11.02
2023-03-29T15:26:20.326Z,10.93
2023-03-29T15:29:23.670Z,14.63
2023-03-29T15:32:23.065Z,12.75
2023-03-29T15:35:25.859Z,12.35
2023-03-29T15:38:14.323Z,10.57
2023-03-29T15:41:04.218Z,13.50
2023-03-29T15:43:50.654Z,16.23
2023-03-29T15:46:37.249Z,11.65
2023-03-29T15:50:06.205Z,14.10
2023-03-29T15:53:43.190Z,22.13
2023-03-29T15:56:37.567Z,13.90
2023-03-29T15:59:25.733Z,15.20
2023-03-29T16:02:16.666Z,24.70
2023-03-29T16:05:04.831Z,13.32
2023-03-29T16:07:51.353Z,8.98
2023-03-29T16:10:37.927Z,9.30
2023-03-29T16:13:24.831Z,10.20
2023-03-29T16:16:13.529Z,12.00
2023-03-29T16:19:00.147Z,13.05
2023-03-29T16:21:46.082Z,20.58
2023-03-29T16:24:34.158Z,12.13
2023-03-29T16:27:20.630Z,9.93
2023-03-29T16:30:08.496Z,13.68
2023-03-29T16:32:55.133Z,10.80
2023-03-29T16:35:42.257Z,32.08
2023-03-29T16:38:29.483Z,11.32
2023-03-29T16:41:16.983Z,13.18
2023-03-29T16:44:04.105Z,9.75
2023-03-29T16:46:50.734Z,12.75
2023-03-29T16:49:39.238Z,9.55
2023-03-29T16:52:27.852Z,13.60
2023-03-29T16:55:15.359Z,18.23
2023-03-29T16:58:01.829Z,13.13
2023-03-29T17:00:48.630Z,14.15
2023-03-29T17:03:37.496Z,16.40
2023-03-29T17:06:24.269Z,13.10
2023-03-29T17:09:10.775Z,16.83
2023-03-29T17:11:57.084Z,16.70
2023-03-29T17:14:43.678Z,11.15
2023-03-29T17:17:29.907Z,13.82
2023-03-29T17:20:16.924Z,14.90
2023-03-29T17:23:03.219Z,12.70
2023-03-29T17:25:50.186Z,28.65
2023-03-29T17:28:39.020Z,16.08
2023-03-29T17:31:26.300Z,15.60
2023-03-29T17:34:12.475Z,12.95
2023-03-29T17:37:00.172Z,13.90
2023-03-29T17:39:46.324Z,26.60
2023-03-29T17:42:32.813Z,12.77
2023-03-29T17:45:19.615Z,17.02
2023-03-29T17:48:06.666Z,10.50
2023-03-29T17:50:57.010Z,11.18
2023-03-29T17:53:44.293Z,12.15
2023-03-29T17:56:30.798Z,12.18
2023-03-29T17:59:17.752Z,16.92
2023-03-29T18:02:06.139Z,16.40
2023-03-29T18:04:52.689Z,13.32
2023-03-29T18:07:38.668Z,18.90
2023-03-29T18:10:25.165Z,26.33
2023-03-29T18:13:14.164Z,18.30
2023-03-29T18:16:05.441Z,29.55
2023-03-29T18:18:52.301Z,30.65
2023-03-29T18:21:38.587Z,68.55
2023-03-29T18:24:33.197Z,66.45
2023-03-29T18:27:20.035Z,52.00
2023-03-29T18:30:07.767Z,31.08
2023-03-29T18:32:54.181Z,30.35
2023-03-29T18:35:40.644Z,38.00
2023-03-29T18:38:27.241Z,46.67
2023-03-29T18:41:14.367Z,57.17
2023-03-29T18:44:01.119Z,42.88
2023-03-29T18:46:48.220Z,32.75
2023-03-29T18:49:34.726Z,26.23
2023-03-29T18:52:24.996Z,18.20
2023-03-29T18:55:11.532Z,20.05
2023-03-29T18:57:58.030Z,21.77
2023-03-29T19:00:44.713Z,20.65
2023-03-29T19:03:32.195Z,23.00
2023-03-29T19:06:19.378Z,21.98
2023-03-29T19:09:05.515Z,21.58
2023-03-29T19:11:51.764Z,21.70
2023-03-29T19:14:37.581Z,20.95
2023-03-29T19:17:24.258Z,21.60
2023-03-29T19:20:11.719Z,19.95
2023-03-29T19:22:58.245Z,24.05
2023-03-29T19:26:00.949Z,24.73
2023-03-29T19:28:47.604Z,83.70
2023-03-29T19:31:36.076Z,37.47
2023-03-29T19:34:24.049Z,45.20
2023-03-29T19:37:10.052Z,35.58
2023-03-29T19:39:57.244Z,25.42
2023-03-29T19:42:43.588Z,21.23
2023-03-29T19:45:30.124Z,21.30
2023-03-29T19:48:22.367Z,21.50
2023-03-29T19:51:10.708Z,18.42
2023-03-29T19:53:57.424Z,18.75
2023-03-29T19:56:44.421Z,18.20
2023-03-29T19:59:31.649Z,22.48
2023-03-29T20:02:17.856Z,21.20
2023-03-29T20:05:04.528Z,21.27
2023-03-29T20:07:51.601Z,18.60
2023-03-29T20:10:37.554Z,20.02
2023-03-29T20:13:57.254Z,22.77
2023-03-29T20:17:11.876Z,22.67
2023-03-29T20:20:13.382Z,22.00
2023-03-29T20:23:05.411Z,18.17
2023-03-29T20:25:52.737Z,20.55
2023-03-29T20:28:39.266Z,18.70
2023-03-29T20:31:26.096Z,16.92
2023-03-29T20:34:12.406Z,20.55
2023-03-29T20:37:01.142Z,16.63
2023-03-29T20:39:47.842Z,14.55
2023-03-29T20:42:36.830Z,13.85
2023-03-29T20:45:23.102Z,12.63
2023-03-29T20:48:11.960Z,12.00
2023-03-29T20:50:58.609Z,13.13
2023-03-29T20:54:02.508Z,16.63
2023-03-29T20:56:48.878Z,12.88
2023-03-29T20:59:35.836Z,12.85
2023-03-29T21:02:23.074Z,10.60
2023-03-29T21:05:09.970Z,11.40
2023-03-29T21:07:57.269Z,9.88
2023-03-29T21:10:45.096Z,10.25
2023-03-29T21:13:36.508Z,12.10
2023-03-29T21:16:25.393Z,10.70
2023-03-29T21:19:12.682Z,10.90
2023-03-29T21:21:59.167Z,10.45
2023-03-29T21:24:45.228Z,8.68
2023-03-29T21:27:37.339Z,9.55
2023-03-29T21:30:23.687Z,9.95
2023-03-29T21:33:10.650Z,10.95
2023-03-29T21:35:57.055Z,13.75
2023-03-29T21:38:43.548Z,14.13
2023-03-29T21:41:29.573Z,12.60
2023-03-29T21:44:15.939Z,10.50
2023-03-29T21:47:05.747Z,11.13
2023-03-29T21:49:52.524Z,9.67
2023-03-29T21:52:38.662Z,9.73
2023-03-29T21:55:25.289Z,11.10
2023-03-29T21:58:12.591Z,18.08
2023-03-29T22:00:58.840Z,12.63
2023-03-29T22:03:46.631Z,9.88
2023-03-29T22:06:33.346Z,11.48
2023-03-29T22:09:20.569Z,9.88
2023-03-29T22:12:07.361Z,10.77
2023-03-29T22:14:53.616Z,10.30
2023-03-29T22:17:41.471Z,10.20
2023-03-29T22:20:27.925Z,9.23
2023-03-29T22:23:15.407Z,9.57
2023-03-29T22:26:07.178Z,9.27
2023-03-29T22:28:53.950Z,12.63
2023-03-29T22:31:40.701Z,10.60
2023-03-29T22:34:27.765Z,10.68
2023-03-29T22:37:14.063Z,11.77
2023-03-29T22:40:00.282Z,10.88
2023-03-29T22:42:46.795Z,11.65
2023-03-29T22:45:32.876Z,16.13
2023-03-29T22:48:19.256Z,17.98
2023-03-29T22:51:06.304Z,14.85
2023-03-29T22:53:52.152Z,12.75
2023-03-29T22:56:38.768Z,11.50
2023-03-29T22:59:25.574Z,11.25
2023-03-29T23:02:11.765Z,11.38
2023-03-29T23:04:57.868Z,11.13
2023-03-29T23:07:44.458Z,11.48
2023-03-29T23:10:30.914Z,13.18
2023-03-29T23:13:23.595Z,12.27
2023-03-29T23:16:09.839Z,12.50
2023-03-29T23:18:56.645Z,12.18
2023-03-29T23:21:42.368Z,12.68
2023-03-29T23:24:30.426Z,14.07
2023-03-29T23:27:16.306Z,15.18
2023-03-29T23:30:02.554Z,12.90
2023-03-29T23:32:49.524Z,13.57
2023-03-29T23:35:37.321Z,16.60
2023-03-29T23:38:23.348Z,14.15
2023-03-29T23:41:10.939Z,13.20
2023-03-29T23:43:57.778Z,14.38
2023-03-29T23:46:44.114Z,15.25
2023-03-29T23:49:30.238Z,13.32
2023-03-29T23:52:16.283Z,13.45
2023-03-29T23:55:02.528Z,13.27
2023-03-29T23:57:48.443Z,12.00
